Time;durP1;ratioP1;P1;durP2;ratioP2;P2;SDS_P1;SDS_P2;PMS_P1;PMS_P2;Temp;Humidity;BMP_temperature;BMP_pressure;BME280_temperature;BME280_humidity;BME280_pressure;Samples;Min_cycle;Max_cycle;Signal;HPM_P1;HPM_P2
2023/07/19 00:02:08;;;;;;;5.78;3.03;;;20.10;57.70;;;;;;5115558;28;20556;-68
2023/07/19 00:04:35;;;;;;;5.10;2.70;;;20.10;57.60;;;;;;5115567;28;20074;-68
2023/07/19 00:07:03;;;;;;;8.48;3.08;;;20.00;57.80;;;;;;5117261;28;20055;-67
2023/07/19 00:09:31;;;;;;;4.97;2.58;;;20.00;57.90;;;;;;5114092;28;20051;-67
2023/07/19 00:11:58;;;;;;;5.00;2.35;;;19.90;58.10;;;;;;5115669;28;20330;-69
2023/07/19 00:14:25;;;;;;;5.28;2.80;;;19.90;58.20;;;;;;5112440;28;20040;-69
2023/07/19 00:16:52;;;;;;;5.78;2.67;;;19.80;58.40;;;;;;5116281;28;20372;-69
2023/07/19 00:19:18;;;;;;;5.18;2.40;;;19.80;58.50;;;;;;5116538;28;20043;-69
2023/07/19 00:21:45;;;;;;;4.93;2.70;;;19.80;58.60;;;;;;5118232;27;20044;-68
2023/07/19 00:24:12;;;;;;;6.15;3.10;;;19.70;58.80;;;;;;5120014;27;20035;-69
2023/07/19 00:26:41;;;;;;;4.68;2.25;;;19.60;59.10;;;;;;5121752;27;20091;-69
2023/07/19 00:29:08;;;;;;;4.40;2.33;;;19.70;59.10;;;;;;5118625;27;20051;-70
2023/07/19 00:31:35;;;;;;;4.82;2.50;;;19.70;59.10;;;;;;5111649;27;21032;-70
2023/07/19 00:34:02;;;;;;;4.95;2.53;;;19.70;59.20;;;;;;5115044;27;20474;-69
2023/07/19 00:36:29;;;;;;;5.63;2.33;;;19.70;59.30;;;;;;5094390;27;20074;-68
2023/07/19 00:38:56;;;;;;;5.53;2.47;;;19.70;59.40;;;;;;5097007;27;20059;-69
2023/07/19 00:41:23;;;;;;;5.45;2.92;;;19.70;59.50;;;;;;5116656;27;20044;-69
2023/07/19 00:43:51;;;;;;;5.63;2.53;;;19.60;59.50;;;;;;5095473;27;20039;-69
2023/07/19 00:46:20;;;;;;;5.40;2.58;;;19.60;59.60;;;;;;5119576;27;20039;-70
2023/07/19 00:48:47;;;;;;;4.10;2.25;;;19.60;59.60;;;;;;5113807;27;20539;-67
2023/07/19 00:51:16;;;;;;;4.47;2.50;;;19.60;59.80;;;;;;5116987;27;20582;-69
2023/07/19 00:53:48;;;;;;;4.75;2.35;;;19.50;59.90;;;;;;5117599;27;20051;-68
2023/07/19 00:56:15;;;;;;;5.32;2.63;;;19.50;59.80;;;;;;5116397;27;20417;-69
2023/07/19 00:58:43;;;;;;;4.60;2.78;;;19.40;59.70;;;;;;5118319;27;20039;-69
2023/07/19 01:01:11;;;;;;;4.82;2.80;;;19.60;59.40;;;;;;5119545;27;20052;-68
2023/07/19 01:03:38;;;;;;;5.57;3.15;;;19.50;59.40;;;;;;5117793;27;20458;-68
2023/07/19 01:06:06;;;;;;;6.65;3.45;;;19.50;59.40;;;;;;5093798;27;20051;-69
2023/07/19 01:08:34;;;;;;;8.02;3.38;;;19.40;59.70;;;;;;5116417;27;20065;-69
2023/07/19 01:11:01;;;;;;;4.85;3.10;;;19.40;59.70;;;;;;5115298;27;20079;-67
2023/07/19 01:13:28;;;;;;;5.15;3.17;;;19.40;59.90;;;;;;5113565;27;21704;-69
2023/07/19 01:15:55;;;;;;;5.18;3.35;;;19.30;60.10;;;;;;5115803;27;20039;-66
2023/07/19 01:18:23;;;;;;;7.28;3.15;;;19.30;60.20;;;;;;5117800;27;20063;-68
2023/07/19 01:20:51;;;;;;;6.90;3.35;;;19.30;60.30;;;;;;5115004;27;20062;-67
2023/07/19 01:23:19;;;;;;;6.45;3.35;;;19.20;60.50;;;;;;5116145;27;20147;-67
2023/07/19 01:25:48;;;;;;;5.43;2.67;;;19.20;60.60;;;;;;5119064;27;20074;-68
2023/07/19 01:28:16;;;;;;;6.65;3.15;;;19.20;60.80;;;;;;5100364;27;20036;-68
2023/07/19 01:30:42;;;;;;;4.05;2.58;;;19.10;60.90;;;;;;5097148;27;20059;-67
2023/07/19 01:33:09;;;;;;;6.82;2.70;;;19.00;61.10;;;;;;5119072;27;20046;-68
2023/07/19 01:35:38;;;;;;;4.95;2.75;;;19.00;61.30;;;;;;5117620;27;20843;-68
2023/07/19 01:38:05;;;;;;;5.60;2.80;;;18.90;61.50;;;;;;5115827;27;20047;-66
2023/07/19 01:40:34;;;;;;;4.80;2.63;;;18.90;61.60;;;;;;5110501;27;20055;-68
2023/07/19 01:43:01;;;;;;;4.43;2.78;;;18.90;61.80;;;;;;5116577;27;20100;-67
2023/07/19 01:45:27;;;;;;;6.57;2.60;;;18.80;62.00;;;;;;5099771;27;20808;-68
2023/07/19 01:47:54;;;;;;;5.85;2.67;;;18.80;62.10;;;;;;5097583;27;20051;-67
2023/07/19 01:50:21;;;;;;;4.63;2.40;;;18.80;62.10;;;;;;5115950;27;20066;-68
2023/07/19 01:52:49;;;;;;;7.60;2.75;;;18.70;62.20;;;;;;5119134;27;20405;-68
2023/07/19 01:55:16;;;;;;;5.88;2.67;;;18.60;62.30;;;;;;5117838;27;20051;-67
2023/07/19 01:57:44;;;;;;;6.38;2.60;;;18.60;62.50;;;;;;5113761;27;20079;-67
2023/07/19 02:00:13;;;;;;;5.57;2.88;;;18.60;62.40;;;;;;5099760;27;20126;-67
2023/07/19 02:02:43;;;;;;;4.90;2.67;;;18.60;62.30;;;;;;5115755;27;20054;-67
2023/07/19 02:05:10;;;;;;;5.90;3.10;;;18.60;62.30;;;;;;5099639;27;20074;-68
2023/07/19 02:07:38;;;;;;;6.10;2.75;;;18.60;62.30;;;;;;5118319;27;20058;-67
2023/07/19 02:10:07;;;;;;;5.82;2.67;;;18.60;62.20;;;;;;5115887;27;20723;-68
2023/07/19 02:12:35;;;;;;;4.85;2.78;;;18.60;62.20;;;;;;5114396;27;20039;-68
2023/07/19 02:15:03;;;;;;;5.93;2.70;;;18.50;62.50;;;;;;5115248;27;20047;-67
2023/07/19 02:17:30;;;;;;;6.25;3.20;;;18.40;62.80;;;;;;5087307;27;20134;-69
2023/07/19 02:19:58;;;;;;;5.50;3.00;;;18.40;63.10;;;;;;5099674;27;20132;-68
2023/07/19 02:22:26;;;;;;;5.45;3.15;;;18.40;63.10;;;;;;5116799;27;20138;-67
2023/07/19 02:24:52;;;;;;;4.72;3.05;;;18.40;63.30;;;;;;5118920;27;20093;-69
2023/07/19 02:27:19;;;;;;;5.90;3.35;;;18.40;63.40;;;;;;5118333;27;20059;-69
2023/07/19 02:29:46;;;;;;;5.18;3.00;;;18.40;63.50;;;;;;5116479;27;20039;-67
2023/07/19 02:32:14;;;;;;;5.60;3.05;;;18.30;63.60;;;;;;5115422;27;20079;-68
2023/07/19 02:34:41;;;;;;;5.43;3.08;;;18.30;63.50;;;;;;5116909;27;20039;-69
2023/07/19 02:37:08;;;;;;;6.00;2.90;;;18.20;63.70;;;;;;5116109;27;20051;-68
2023/07/19 02:39:35;;;;;;;5.18;2.83;;;18.20;63.70;;;;;;5113215;27;20134;-67
2023/07/19 02:42:02;;;;;;;5.32;3.03;;;18.20;63.70;;;;;;5118124;27;20056;-68
2023/07/19 02:44:29;;;;;;;5.50;3.15;;;18.20;63.80;;;;;;5118586;27;20088;-69
2023/07/19 02:46:56;;;;;;;4.80;2.60;;;18.20;63.70;;;;;;5098846;27;20050;-68
2023/07/19 02:49:24;;;;;;;5.63;2.97;;;18.10;64.00;;;;;;5113121;27;20062;-68
2023/07/19 02:51:51;;;;;;;6.22;2.88;;;18.10;64.00;;;;;;5118099;27;20051;-68
2023/07/19 02:54:19;;;;;;;4.82;3.13;;;18.10;64.10;;;;;;5117667;27;20042;-68
2023/07/19 02:56:46;;;;;;;5.07;3.05;;;18.10;64.10;;;;;;5097264;27;20517;-69
2023/07/19 02:59:13;;;;;;;6.22;3.35;;;18.10;64.10;;;;;;5115649;27;20043;-69
2023/07/19 03:01:41;;;;;;;6.65;3.22;;;18.00;64.20;;;;;;5090884;28;20482;-68
2023/07/19 03:04:08;;;;;;;5.00;3.13;;;18.00;64.40;;;;;;5116928;27;20043;-69
2023/07/19 03:06:36;;;;;;;5.35;3.08;;;17.90;64.60;;;;;;5116111;27;20047;-69
2023/07/19 03:09:06;;;;;;;5.53;2.90;;;17.90;64.80;;;;;;5108828;27;20052;-70
2023/07/19 03:11:32;;;;;;;5.85;3.20;;;17.80;64.80;;;;;;5114290;27;20050;-69
2023/07/19 03:13:59;;;;;;;6.68;3.53;;;17.80;64.90;;;;;;5116459;27;20058;-69
2023/07/19 03:16:26;;;;;;;5.28;3.05;;;17.80;65.00;;;;;;5097976;27;20088;-69
2023/07/19 03:18:53;;;;;;;5.22;3.15;;;17.80;65.20;;;;;;5116222;27;20062;-69
2023/07/19 03:21:21;;;;;;;5.45;3.28;;;17.70;65.40;;;;;;5115663;27;20047;-68
2023/07/19 03:23:50;;;;;;;6.75;2.85;;;17.70;65.50;;;;;;5116575;27;20039;-69
2023/07/19 03:26:18;;;;;;;4.72;2.97;;;17.60;65.50;;;;;;5097701;28;20443;-69
2023/07/19 03:28:46;;;;;;;5.63;2.83;;;17.70;65.40;;;;;;5105528;27;20101;-68
2023/07/19 03:31:13;;;;;;;4.57;2.40;;;17.70;65.20;;;;;;5113907;27;20486;-67
2023/07/19 03:33:40;;;;;;;4.97;2.60;;;17.70;65.20;;;;;;5099269;28;20134;-69
2023/07/19 03:36:10;;;;;;;6.60;3.10;;;17.60;65.30;;;;;;5092157;28;20054;-69
2023/07/19 03:38:37;;;;;;;4.82;2.70;;;17.60;65.40;;;;;;5097402;28;20138;-67
2023/07/19 03:41:09;;;;;;;6.20;2.80;;;17.60;65.40;;;;;;5099460;27;20138;-67
2023/07/19 03:43:36;;;;;;;5.18;2.80;;;17.50;65.60;;;;;;5097639;28;20048;-68
2023/07/19 03:46:05;;;;;;;4.28;2.40;;;17.50;65.80;;;;;;5114869;28;20054;-68
2023/07/19 03:48:32;;;;;;;4.95;2.70;;;17.50;65.80;;;;;;5098409;28;20043;-67
2023/07/19 03:51:01;;;;;;;4.45;2.42;;;17.50;65.80;;;;;;5114182;27;20043;-69
2023/07/19 03:53:29;;;;;;;5.32;2.95;;;17.50;65.80;;;;;;5098162;28;20047;-69
2023/07/19 03:55:56;;;;;;;5.05;2.80;;;17.40;65.90;;;;;;5111220;28;20067;-69
2023/07/19 03:58:25;;;;;;;5.22;2.72;;;17.40;66.20;;;;;;5099944;27;20107;-69
2023/07/19 04:00:53;;;;;;;5.57;2.72;;;17.40;66.30;;;;;;5098969;27;20044;-69
2023/07/19 04:03:20;;;;;;;5.93;3.20;;;17.40;66.50;;;;;;5099562;27;20474;-69
2023/07/19 04:05:47;;;;;;;5.43;3.00;;;17.40;66.50;;;;;;5110950;27;20058;-69
2023/07/19 04:08:15;;;;;;;5.70;3.35;;;17.50;66.80;;;;;;5103083;27;20048;-68
2023/07/19 04:10:42;;;;;;;6.28;3.42;;;17.40;66.90;;;;;;5121498;27;20466;-68
2023/07/19 04:13:10;;;;;;;5.32;2.78;;;17.40;67.10;;;;;;5117368;27;20629;-69
2023/07/19 04:15:39;;;;;;;9.60;3.10;;;17.40;67.30;;;;;;5101407;27;20051;-69
2023/07/19 04:18:06;;;;;;;6.20;3.30;;;17.40;67.40;;;;;;5120071;27;20047;-67
2023/07/19 04:20:36;;;;;;;6.03;3.13;;;17.40;67.40;;;;;;5102264;27;20062;-68
2023/07/19 04:23:04;;;;;;;5.80;3.08;;;17.40;67.30;;;;;;5113232;27;20048;-67
2023/07/19 04:25:31;;;;;;;6.55;3.20;;;17.50;67.30;;;;;;5100615;27;20063;-69
2023/07/19 04:27:58;;;;;;;5.55;3.25;;;17.50;67.30;;;;;;5099998;27;20054;-69
2023/07/19 04:30:25;;;;;;;5.43;3.20;;;17.50;67.10;;;;;;5100410;27;20478;-69
2023/07/19 04:32:55;;;;;;;5.90;3.00;;;17.60;66.70;;;;;;5120922;27;20485;-67
2023/07/19 04:35:23;;;;;;;5.55;2.80;;;17.70;66.20;;;;;;5103688;27;20051;-68
2023/07/19 04:37:50;;;;;;;5.35;3.05;;;17.70;65.90;;;;;;5100370;27;20088;-68
2023/07/19 04:40:17;;;;;;;5.63;2.90;;;17.70;66.00;;;;;;5102042;27;20134;-68
2023/07/19 04:42:44;;;;;;;6.32;2.80;;;17.70;66.00;;;;;;5119201;27;20059;-68
2023/07/19 04:45:13;;;;;;;5.82;2.72;;;17.70;66.20;;;;;;5094347;27;20059;-68
2023/07/19 04:47:40;;;;;;;6.03;2.80;;;17.60;66.30;;;;;;5115521;27;20050;-68
2023/07/19 04:50:10;;;;;;;6.30;3.53;;;17.70;66.10;;;;;;5102313;27;20442;-67
2023/07/19 04:52:38;;;;;;;5.60;3.15;;;17.80;65.80;;;;;;5105144;27;20048;-69
2023/07/19 04:55:06;;;;;;;7.00;3.30;;;17.80;65.70;;;;;;5100099;27;20047;-69
2023/07/19 04:57:34;;;;;;;6.55;4.20;;;17.90;65.30;;;;;;5094265;27;20054;-68
2023/07/19 05:00:04;;;;;;;7.43;4.72;;;18.00;65.20;;;;;;5119547;27;20050;-67
2023/07/19 05:02:30;;;;;;;8.07;4.70;;;18.00;65.30;;;;;;5096524;27;20055;-69
2023/07/19 05:04:58;;;;;;;7.78;4.13;;;17.90;65.20;;;;;;5099328;28;20078;-69
2023/07/19 05:07:26;;;;;;;7.72;4.07;;;18.00;65.40;;;;;;5099777;27;20470;-69
2023/07/19 05:09:53;;;;;;;6.88;3.55;;;18.10;65.60;;;;;;5115383;27;20055;-69
2023/07/19 05:12:20;;;;;;;7.28;3.80;;;18.00;65.40;;;;;;5119768;27;20059;-67
2023/07/19 05:14:47;;;;;;;6.03;3.47;;;18.10;64.90;;;;;;5119686;27;20071;-69
2023/07/19 05:17:15;;;;;;;6.18;3.22;;;18.10;64.90;;;;;;5098668;27;20035;-67
2023/07/19 05:19:42;;;;;;;6.07;3.50;;;18.20;64.90;;;;;;5099533;27;20074;-69
2023/07/19 05:22:10;;;;;;;5.80;3.28;;;18.20;64.40;;;;;;5117607;27;20047;-67
2023/07/19 05:24:38;;;;;;;5.97;3.22;;;18.30;64.60;;;;;;5118600;27;20047;-68
2023/07/19 05:27:06;;;;;;;7.43;2.80;;;18.30;64.50;;;;;;5117226;27;20036;-68
2023/07/19 05:29:34;;;;;;;6.55;3.20;;;18.30;64.30;;;;;;5113804;27;20100;-68
2023/07/19 05:32:01;;;;;;;7.00;3.40;;;18.30;64.30;;;;;;5109304;27;20043;-67
2023/07/19 05:34:28;;;;;;;7.75;3.08;;;18.30;64.10;;;;;;5119206;27;20490;-68
2023/07/19 05:36:55;;;;;;;5.90;2.92;;;18.30;64.60;;;;;;5114340;27;20069;-68
2023/07/19 05:39:22;;;;;;;6.00;3.33;;;18.30;64.90;;;;;;5117070;27;20477;-67
2023/07/19 05:41:50;;;;;;;5.60;2.88;;;18.40;65.00;;;;;;5119205;27;20061;-68
2023/07/19 05:44:17;;;;;;;5.63;3.00;;;18.30;64.90;;;;;;5120490;27;20066;-68
2023/07/19 05:46:44;;;;;;;5.60;3.15;;;18.30;64.80;;;;;;5116540;27;20039;-67
2023/07/19 05:49:11;;;;;;;6.75;3.35;;;18.40;64.70;;;;;;5115018;27;20169;-68
2023/07/19 05:51:39;;;;;;;5.90;2.88;;;18.30;64.70;;;;;;5116533;27;20386;-68
2023/07/19 05:54:05;;;;;;;4.95;2.90;;;18.30;64.70;;;;;;5117800;27;20062;-67
2023/07/19 05:56:32;;;;;;;6.18;3.47;;;18.40;64.90;;;;;;5119576;27;20043;-69
2023/07/19 05:59:01;;;;;;;6.28;2.90;;;18.30;65.10;;;;;;5115198;27;20047;-67
2023/07/19 06:01:29;;;;;;;6.68;3.45;;;18.40;64.80;;;;;;5119253;27;20051;-68
2023/07/19 06:03:56;;;;;;;6.57;3.00;;;18.40;64.90;;;;;;5119958;27;20047;-68
2023/07/19 06:06:25;;;;;;;7.45;3.28;;;18.40;64.60;;;;;;5112575;27;20525;-68
2023/07/19 06:08:51;;;;;;;6.53;3.55;;;18.40;64.80;;;;;;5117331;27;20069;-68
2023/07/19 06:11:18;;;;;;;6.47;3.03;;;18.50;64.80;;;;;;5119591;27;20623;-67
2023/07/19 06:13:45;;;;;;;6.85;3.58;;;18.50;64.50;;;;;;5119125;27;20046;-67
2023/07/19 06:16:14;;;;;;;7.15;3.60;;;18.60;64.20;;;;;;5117674;27;20043;-68
2023/07/19 06:18:41;;;;;;;6.82;3.03;;;18.60;63.70;;;;;;5115411;27;20040;-68
2023/07/19 06:21:08;;;;;;;8.57;3.42;;;18.80;64.00;;;;;;5119198;27;20493;-69
2023/07/19 06:23:35;;;;;;;7.60;3.08;;;18.80;64.00;;;;;;5115129;27;20047;-69
2023/07/19 06:26:02;;;;;;;5.45;3.15;;;18.80;63.90;;;;;;5119402;27;20051;-67
2023/07/19 06:28:29;;;;;;;7.57;3.40;;;18.90;63.50;;;;;;5119767;27;20114;-67
2023/07/19 06:30:58;;;;;;;4.50;3.10;;;18.90;64.00;;;;;;5118514;27;20051;-69
2023/07/19 06:33:27;;;;;;;6.30;3.22;;;19.00;63.80;;;;;;5118171;27;20059;-66
2023/07/19 06:35:53;;;;;;;6.35;3.22;;;19.00;63.80;;;;;;5115143;27;20058;-67
2023/07/19 06:41:06;;;;;;;5.18;3.03;;;19.10;62.90;;;;;;5099400;27;20096;-68
2023/07/19 06:43:34;;;;;;;5.22;3.28;;;19.20;63.00;;;;;;5115206;27;20044;-67
2023/07/19 06:46:00;;;;;;;5.72;2.92;;;19.30;62.50;;;;;;5117234;27;20035;-69
2023/07/19 06:48:29;;;;;;;5.65;3.03;;;19.40;62.20;;;;;;5117288;27;20063;-68
2023/07/19 06:50:56;;;;;;;5.95;3.30;;;19.50;61.60;;;;;;5117018;27;20058;-67
2023/07/19 06:53:23;;;;;;;5.85;2.85;;;19.60;61.30;;;;;;5097280;27;20138;-67
2023/07/19 06:55:52;;;;;;;7.85;3.42;;;19.80;61.10;;;;;;5093571;27;20054;-67
2023/07/19 06:58:19;;;;;;;5.75;3.10;;;20.00;60.50;;;;;;5113164;27;20058;-68
2023/07/19 07:00:46;;;;;;;7.78;3.20;;;20.20;60.00;;;;;;5115605;27;20046;-68
2023/07/19 07:03:13;;;;;;;6.18;2.92;;;20.40;59.40;;;;;;5100720;27;20089;-67
2023/07/19 07:05:46;;;;;;;6.28;2.97;;;20.60;58.70;;;;;;5116704;27;20551;-67
2023/07/19 07:08:13;;;;;;;7.50;3.33;;;20.70;57.80;;;;;;5117659;27;20049;-67
2023/07/19 07:10:42;;;;;;;5.25;2.97;;;20.90;57.60;;;;;;5114467;27;20043;-67
2023/07/19 07:13:09;;;;;;;5.95;2.67;;;21.00;57.30;;;;;;5113553;27;20054;-68
2023/07/19 07:15:36;;;;;;;6.25;3.33;;;21.10;57.10;;;;;;5116419;27;20054;-67
2023/07/19 07:18:03;;;;;;;6.45;3.30;;;21.30;56.50;;;;;;5115129;27;20527;-68
2023/07/19 07:20:30;;;;;;;6.72;3.13;;;21.50;55.80;;;;;;5116979;27;20478;-69
2023/07/19 07:22:58;;;;;;;5.00;2.55;;;21.70;55.40;;;;;;5116905;27;20047;-69
2023/07/19 07:25:25;;;;;;;5.75;3.10;;;21.80;55.40;;;;;;5118058;27;20044;-68
2023/07/19 07:27:52;;;;;;;6.45;2.70;;;21.90;55.10;;;;;;5118179;27;20047;-68
2023/07/19 07:30:19;;;;;;;5.95;2.80;;;22.20;54.80;;;;;;5114712;27;20490;-67
2023/07/19 07:32:46;;;;;;;5.65;2.78;;;22.40;54.90;;;;;;5113740;27;20427;-68
2023/07/19 07:35:13;;;;;;;5.85;2.97;;;22.40;54.80;;;;;;5118758;27;20097;-68
2023/07/19 07:37:40;;;;;;;6.20;3.55;;;22.50;54.70;;;;;;5117240;27;20058;-69
2023/07/19 07:40:10;;;;;;;6.82;3.03;;;22.60;54.60;;;;;;5113494;27;20055;-69
2023/07/19 07:42:38;;;;;;;5.25;3.00;;;22.70;54.50;;;;;;5115842;27;20040;-68
2023/07/19 07:45:06;;;;;;;5.78;3.17;;;22.80;54.60;;;;;;5116463;27;20538;-68
2023/07/19 07:47:33;;;;;;;5.20;3.10;;;23.00;54.30;;;;;;5107545;28;20066;-67
2023/07/19 07:50:02;;;;;;;4.55;2.55;;;23.20;53.90;;;;;;5118471;28;20039;-68
2023/07/19 07:52:29;;;;;;;;;;;23.50;53.60;;;;;;5117623;28;20051;-68
2023/07/19 07:54:56;;;;;;;5.75;3.20;;;23.60;53.00;;;;;;5117038;28;19930;-68
2023/07/19 07:57:25;;;;;;;5.63;3.20;;;23.60;52.70;;;;;;5117920;28;20044;-69
2023/07/19 07:59:52;;;;;;;6.75;3.10;;;23.80;52.70;;;;;;5115616;28;20052;-68
2023/07/19 08:02:19;;;;;;;4.97;2.97;;;24.00;52.30;;;;;;5116876;28;20512;-68
2023/07/19 08:04:47;;;;;;;4.80;2.63;;;24.20;51.60;;;;;;5114797;28;20693;-68
2023/07/19 08:07:14;;;;;;;5.30;3.20;;;24.40;50.80;;;;;;5119092;28;20051;-68
2023/07/19 08:09:41;;;;;;;5.47;3.08;;;24.40;50.60;;;;;;5116000;28;20048;-68
2023/07/19 08:12:09;;;;;;;5.78;3.40;;;24.50;49.90;;;;;;5115682;28;20397;-68
2023/07/19 08:14:37;;;;;;;6.80;3.17;;;24.60;49.60;;;;;;5110283;28;20046;-69
2023/07/19 08:17:05;;;;;;;5.07;2.88;;;24.80;49.20;;;;;;5114034;28;20050;-67
2023/07/19 08:19:32;;;;;;;6.97;3.97;;;24.90;49.00;;;;;;5115404;28;20092;-68
2023/07/19 08:22:03;;;;;;;8.15;5.65;;;25.10;48.90;;;;;;5116104;28;20051;-67
2023/07/19 08:24:30;;;;;;;10.32;7.32;;;25.30;48.70;;;;;;5113219;28;20040;-65
2023/07/19 08:26:57;;;;;;;13.45;8.57;;;25.40;48.50;;;;;;5119346;28;20050;-67
2023/07/19 08:29:24;;;;;;;10.98;7.38;;;25.50;48.30;;;;;;5116104;28;20118;-68
2023/07/19 08:31:53;;;;;;;12.02;7.43;;;25.60;47.90;;;;;;5115294;28;20041;-68
2023/07/19 08:34:20;;;;;;;9.05;6.70;;;25.70;47.60;;;;;;5112130;28;20042;-68
2023/07/19 08:36:47;;;;;;;10.70;6.53;;;25.80;47.50;;;;;;5115611;28;20090;-68
2023/07/19 08:39:14;;;;;;;11.10;8.10;;;25.90;47.30;;;;;;5113002;27;20077;-67
2023/07/19 08:41:41;;;;;;;10.85;8.45;;;26.10;47.00;;;;;;5112915;28;20382;-68
2023/07/19 08:44:09;;;;;;;10.43;7.43;;;26.20;46.80;;;;;;5117189;27;20069;-68
2023/07/19 08:46:36;;;;;;;11.13;7.00;;;26.30;46.50;;;;;;5120994;27;20035;-68
2023/07/19 08:49:04;;;;;;;10.27;6.95;;;26.40;46.00;;;;;;5119854;27;20410;-68
2023/07/19 08:51:33;;;;;;;9.55;5.13;;;26.60;45.30;;;;;;5119495;27;20130;-68
2023/07/19 08:54:00;;;;;;;8.23;4.65;;;26.70;45.10;;;;;;5119642;27;20079;-67
2023/07/19 08:56:30;;;;;;;7.13;4.35;;;26.80;44.70;;;;;;5119085;27;20448;-67
2023/07/19 08:58:57;;;;;;;6.93;3.55;;;26.90;44.30;;;;;;5118144;27;20051;-68
2023/07/19 09:01:24;;;;;;;5.07;2.80;;;27.10;43.50;;;;;;5111133;27;20047;-68
2023/07/19 09:03:51;;;;;;;5.20;3.00;;;27.20;43.40;;;;;;5117985;27;20069;-68
2023/07/19 09:06:24;;;;;;;4.75;3.00;;;27.30;43.00;;;;;;5122096;27;20046;-69
2023/07/19 09:08:54;;;;;;;5.75;3.40;;;27.40;42.70;;;;;;5119465;27;20043;-68
2023/07/19 09:11:22;;;;;;;6.50;4.15;;;27.40;42.50;;;;;;5117436;27;20043;-68
2023/07/19 09:13:53;;;;;;;6.28;4.38;;;27.50;42.10;;;;;;5118883;27;20044;-67
2023/07/19 09:16:27;;;;;;;7.70;5.78;;;27.60;41.60;;;;;;5116604;27;20038;-67
2023/07/19 09:18:55;;;;;;;8.43;4.80;;;27.70;41.30;;;;;;5114948;27;20051;-68
2023/07/19 09:21:34;;;;;;;8.55;4.55;;;27.80;41.20;;;;;;5116906;27;20452;-67
2023/07/19 09:24:03;;;;;;;;;;;28.00;40.70;;;;;;5116569;27;20142;-68
2023/07/19 09:26:44;;;;;;;6.50;4.43;;;28.00;40.60;;;;;;5117135;27;20381;-67
2023/07/19 09:29:12;;;;;;;6.55;4.85;;;28.10;40.60;;;;;;5113984;27;20047;-66
2023/07/19 09:31:53;;;;;;;8.18;4.97;;;28.10;40.30;;;;;;5114127;27;20047;-67
2023/07/19 09:34:21;;;;;;;6.15;4.57;;;28.20;40.50;;;;;;5117226;27;20046;-67
2023/07/19 09:36:51;;;;;;;7.43;4.57;;;28.30;40.00;;;;;;5120728;27;20036;-67
2023/07/19 09:39:18;;;;;;;6.38;4.13;;;28.40;39.80;;;;;;5100301;27;20066;-66
2023/07/19 09:41:46;;;;;;;6.80;3.90;;;28.50;39.50;;;;;;5117730;27;20059;-66
2023/07/19 09:44:15;;;;;;;5.45;3.50;;;28.60;39.20;;;;;;5118156;27;20039;-68
2023/07/19 09:46:44;;;;;;;5.82;2.95;;;28.50;39.50;;;;;;5115410;27;20052;-67
2023/07/19 09:49:11;;;;;;;6.82;3.65;;;28.50;39.10;;;;;;5119775;27;20050;-68
2023/07/19 09:51:40;;;;;;;5.43;3.33;;;28.50;39.50;;;;;;5118581;27;20126;-67
2023/07/19 09:54:10;;;;;;;6.25;3.45;;;28.60;39.70;;;;;;5117762;27;20047;-68
2023/07/19 09:56:39;;;;;;;5.68;3.95;;;29.00;39.50;;;;;;5120247;27;20056;-67
2023/07/19 09:59:09;;;;;;;6.10;3.72;;;29.10;39.10;;;;;;5117201;27;20043;-67
2023/07/19 10:01:37;;;;;;;5.03;3.17;;;29.10;39.20;;;;;;5116794;27;20058;-68
2023/07/19 10:04:22;;;;;;;5.20;2.70;;;29.10;38.70;;;;;;5115833;27;20054;-69
2023/07/19 10:06:49;;;;;;;5.35;2.47;;;29.00;38.10;;;;;;5114996;27;20051;-67
2023/07/19 10:09:39;;;;;;;4.85;2.47;;;29.10;37.70;;;;;;5114820;27;20040;-68
2023/07/19 10:12:24;;;;;;;7.53;2.35;;;29.20;37.50;;;;;;5119243;27;20050;-67
2023/07/19 10:14:55;;;;;;;6.63;2.22;;;29.20;37.00;;;;;;5117012;27;20088;-67
2023/07/19 10:17:24;;;;;;;5.47;2.60;;;29.40;37.00;;;;;;5115784;27;20051;-67
2023/07/19 10:20:12;;;;;;;3.83;2.28;;;29.50;36.70;;;;;;5117689;27;20039;-67
2023/07/19 10:22:52;;;;;;;3.55;2.40;;;29.60;37.00;;;;;;5115177;27;20123;-68
2023/07/19 10:25:24;;;;;;;4.68;2.45;;;29.60;37.00;;;;;;5113955;27;20040;-67
2023/07/19 10:27:59;;;;;;;3.83;2.30;;;29.70;36.60;;;;;;5114614;27;20219;-67
2023/07/19 10:30:48;;;;;;;3.95;1.95;;;29.80;36.40;;;;;;5114922;27;20047;-69
2023/07/19 10:33:17;;;;;;;3.72;2.05;;;29.90;36.10;;;;;;5115546;27;20043;-65
2023/07/19 10:35:44;;;;;;;4.30;2.38;;;29.90;36.00;;;;;;5117692;27;20073;-66
2023/07/19 10:38:15;;;;;;;6.53;2.42;;;29.80;35.80;;;;;;5116934;27;20055;-68
2023/07/19 10:40:47;;;;;;;3.95;2.03;;;29.70;36.00;;;;;;5115933;27;20498;-69
2023/07/19 10:43:14;;;;;;;4.07;2.03;;;29.60;36.40;;;;;;5114560;27;20047;-68
2023/07/19 10:45:42;;;;;;;4.18;2.20;;;29.60;36.10;;;;;;5113212;27;20447;-67
2023/07/19 10:48:10;;;;;;;3.67;1.90;;;29.50;36.10;;;;;;5115044;27;20048;-67
2023/07/19 10:50:38;;;;;;;3.45;2.05;;;29.50;36.40;;;;;;5116205;27;20146;-67
2023/07/19 10:53:05;;;;;;;4.95;2.67;;;29.70;36.10;;;;;;5115703;27;20075;-67
2023/07/19 10:55:32;;;;;;;7.07;4.35;;;29.80;36.10;;;;;;5115016;27;20039;-68
2023/07/19 10:58:01;;;;;;;8.63;5.70;;;29.90;36.10;;;;;;5116012;27;20042;-67
2023/07/19 11:00:28;;;;;;;9.88;6.30;;;29.80;36.30;;;;;;5116630;27;20040;-68
2023/07/19 11:02:55;;;;;;;8.27;6.13;;;29.80;35.90;;;;;;5115816;27;20097;-68
2023/07/19 11:05:22;;;;;;;12.27;7.28;;;29.80;35.80;;;;;;5110992;27;20440;-67
2023/07/19 11:07:51;;;;;;;6.15;4.40;;;29.80;35.90;;;;;;5113879;27;20530;-67
2023/07/19 11:10:18;;;;;;;8.75;4.78;;;29.70;35.80;;;;;;5098626;27;20073;-68
2023/07/19 11:12:45;;;;;;;4.90;3.05;;;29.60;36.20;;;;;;5116299;27;20043;-66
2023/07/19 11:15:14;;;;;;;5.72;2.70;;;29.50;35.80;;;;;;5115116;27;20043;-68
2023/07/19 11:17:40;;;;;;;4.22;2.60;;;29.30;36.10;;;;;;5114665;27;20126;-68
2023/07/19 11:20:10;;;;;;;4.72;2.80;;;29.30;36.20;;;;;;5112149;27;20078;-69
2023/07/19 11:22:37;;;;;;;5.40;3.45;;;29.20;36.40;;;;;;5117491;27;20135;-68
2023/07/19 11:25:11;;;;;;;4.35;2.78;;;29.20;36.20;;;;;;5115774;27;20082;-68
2023/07/19 11:27:39;;;;;;;5.90;3.40;;;29.10;36.70;;;;;;5116532;27;20133;-66
2023/07/19 11:30:07;;;;;;;6.07;4.18;;;29.00;37.00;;;;;;5117753;27;20051;-66
2023/07/19 11:32:36;;;;;;;4.97;3.10;;;28.90;36.20;;;;;;5098341;27;20087;-67
2023/07/19 11:35:03;;;;;;;6.03;3.22;;;28.70;36.60;;;;;;5113403;27;20051;-68
2023/07/19 11:37:32;;;;;;;6.03;3.72;;;28.70;36.90;;;;;;5119451;27;20059;-68
2023/07/19 11:40:01;;;;;;;;;;;28.80;37.20;;;;;;5118891;27;20043;-68
2023/07/19 11:42:43;;;;;;;7.18;5.18;;;28.80;37.30;;;;;;5117285;27;19930;-68
2023/07/19 11:45:12;;;;;;;8.02;4.57;;;28.80;37.20;;;;;;5111686;27;20055;-67
2023/07/19 11:47:41;;;;;;;6.85;4.57;;;28.80;37.50;;;;;;5115729;27;20036;-67
2023/07/19 11:50:09;;;;;;;6.43;4.85;;;28.80;37.80;;;;;;5114671;28;20079;-67
2023/07/19 11:52:47;;;;;;;8.85;5.03;;;28.80;37.80;;;;;;5117817;28;20501;-68
2023/07/19 11:55:16;;;;;;;8.30;5.07;;;28.70;37.90;;;;;;5118190;27;20051;-67
2023/07/19 11:57:44;;;;;;;9.75;5.57;;;28.60;37.60;;;;;;5116031;28;20039;-66
2023/07/19 12:00:14;;;;;;;8.13;5.70;;;28.60;37.80;;;;;;5115359;28;20038;-67
2023/07/19 12:02:45;;;;;;;11.25;6.75;;;28.60;37.80;;;;;;5115953;28;20096;-68
2023/07/19 12:05:13;;;;;;;11.18;8.50;;;28.50;38.20;;;;;;5107481;28;20089;-66
2023/07/19 12:07:40;;;;;;;14.40;10.67;;;28.40;38.50;;;;;;5117966;28;20058;-66
2023/07/19 12:10:08;;;;;;;19.80;17.63;;;28.50;38.40;;;;;;5114550;28;20050;-67
2023/07/19 12:12:36;;;;;;;18.85;16.17;;;28.50;39.40;;;;;;5111710;28;20040;-67
2023/07/19 12:15:07;;;;;;;19.98;16.73;;;28.60;38.60;;;;;;5111961;28;20051;-68
2023/07/19 12:17:36;;;;;;;16.50;14.15;;;28.60;39.00;;;;;;5115708;27;20051;-68
2023/07/19 12:20:05;;;;;;;13.93;10.05;;;28.70;38.40;;;;;;5115571;27;20047;-66
2023/07/19 12:22:34;;;;;;;15.80;9.75;;;28.80;38.60;;;;;;5117199;27;20482;-67
2023/07/19 12:25:01;;;;;;;12.30;9.80;;;28.80;38.20;;;;;;5094050;27;20043;-67
2023/07/19 12:27:28;;;;;;;21.00;18.10;;;28.80;38.30;;;;;;5117072;27;20042;-67
2023/07/19 12:29:55;;;;;;;13.82;11.45;;;28.80;38.90;;;;;;5117102;27;20044;-66
2023/07/19 12:32:23;;;;;;;14.65;11.68;;;28.80;38.40;;;;;;5117174;27;20071;-68
2023/07/19 12:34:52;;;;;;;11.48;9.32;;;28.80;38.50;;;;;;5111017;27;20048;-68
2023/07/19 12:37:20;;;;;;;14.30;9.35;;;28.80;38.30;;;;;;5115218;27;20466;-68
2023/07/19 12:39:47;;;;;;;12.48;9.95;;;28.80;38.10;;;;;;5117230;27;20055;-67
2023/07/19 12:42:14;;;;;;;15.10;12.30;;;28.70;37.90;;;;;;5117557;27;20051;-66
2023/07/19 12:44:41;;;;;;;11.60;10.40;;;28.70;37.80;;;;;;5118831;27;20430;-66
2023/07/19 12:47:09;;;;;;;16.45;13.55;;;28.60;37.90;;;;;;5115707;27;20046;-68
2023/07/19 12:49:36;;;;;;;16.85;14.60;;;28.60;38.60;;;;;;5119201;27;20047;-67
2023/07/19 12:52:03;;;;;;;15.52;13.25;;;28.60;38.20;;;;;;5117063;27;20048;-66
2023/07/19 12:54:32;;;;;;;12.60;10.57;;;28.60;38.20;;;;;;5119022;27;20050;-68